Time;durP1;ratioP1;P1;durP2;ratioP2;P2;SDS_P1;SDS_P2;PMS_P1;PMS_P2;Temp;Humidity;BMP_temperature;BMP_pressure;BME280_temperature;BME280_humidity;BME280_pressure;Samples;Min_cycle;Max_cycle;Signal;HPM_P1;HPM_P2
2022/10/24 00:01:17;;;;;;;;;;;18.50;1.00;;;;;;5033888;28;20302;-55
2022/10/24 00:03:44;;;;;;;;;;;18.50;1.00;;;;;;5033558;28;20290;-54
2022/10/24 00:06:11;;;;;;;;;;;18.50;1.00;;;;;;5033798;28;19929;-54
2022/10/24 00:08:39;;;;;;;;;;;18.50;1.00;;;;;;5033577;28;19963;-53
2022/10/24 00:11:10;;;;;;;;;;;18.50;1.00;;;;;;5033719;28;19925;-54
2022/10/24 00:13:37;;;;;;;;;;;18.50;1.00;;;;;;5033509;28;19932;-55
2022/10/24 00:16:04;;;;;;;;;;;18.50;1.00;;;;;;5033735;28;20286;-55
2022/10/24 00:18:31;;;;;;;;;;;18.50;1.00;;;;;;5033445;28;19975;-56
2022/10/24 00:20:58;;;;;;;;;;;18.50;1.00;;;;;;5033610;28;19921;-56
2022/10/24 00:23:25;;;;;;;;;;;18.50;1.00;;;;;;5033220;28;19925;-56
2022/10/24 00:25:51;;;;;;;;;;;18.50;1.00;;;;;;5033290;28;19928;-55
2022/10/24 00:28:18;;;;;;;;;;;18.40;1.00;;;;;;5033062;28;19925;-53
2022/10/24 00:30:49;;;;;;;;;;;18.50;1.00;;;;;;5033540;28;20379;-56
2022/10/24 00:33:15;;;;;;;;;;;18.50;1.00;;;;;;5033190;28;19921;-54
2022/10/24 00:35:42;;;;;;;;;;;18.50;1.00;;;;;;5033409;28;19932;-46
2022/10/24 00:38:09;;;;;;;;;;;18.50;1.00;;;;;;5033178;28;19921;-51
2022/10/24 00:40:36;;;;;;;;;;;18.50;1.00;;;;;;5033224;28;20441;-49
2022/10/24 00:43:02;;;;;;;;;;;18.40;1.00;;;;;;5033004;28;19921;-50
2022/10/24 00:45:41;;;;;;;;;;;18.40;1.00;;;;;;5033342;28;19921;-54
2022/10/24 00:48:16;;;;;;;;;;;18.40;1.00;;;;;;5033274;28;19925;-50
2022/10/24 00:50:43;;;;;;;;;;;18.40;1.00;;;;;;5033260;28;19925;-51
2022/10/24 00:53:10;;;;;;;;;;;18.40;1.00;;;;;;5032804;28;19956;-55
2022/10/24 00:55:37;;;;;;;;;;;18.40;1.00;;;;;;5033212;28;20405;-50
2022/10/24 00:58:05;;;;;;;;;;;18.40;1.00;;;;;;5033103;28;20298;-54
2022/10/24 01:00:32;;;;;;;;;;;18.40;1.00;;;;;;5032990;28;19946;-51
2022/10/24 01:02:59;;;;;;;;;;;18.40;1.00;;;;;;5032741;28;20371;-54
2022/10/24 01:05:29;;;;;;;;;;;18.40;1.00;;;;;;5032870;28;19963;-55
2022/10/24 01:08:04;;;;;;;;;;;18.40;1.00;;;;;;5032991;28;19921;-55
2022/10/24 01:10:36;;;;;;;;;;;18.40;1.00;;;;;;5033272;28;19921;-55
2022/10/24 01:13:28;;;;;;;;;;;18.40;1.00;;;;;;5032812;28;19921;-50
2022/10/24 01:16:09;;;;;;;;;;;18.40;1.00;;;;;;5032922;28;19925;-52
2022/10/24 01:18:51;;;;;;;;;;;18.40;1.00;;;;;;5032902;28;19921;-53
2022/10/24 01:21:31;;;;;;;;;;;18.40;1.00;;;;;;5033345;28;19929;-53
2022/10/24 01:24:04;;;;;;;;;;;18.40;1.00;;;;;;5032605;28;20339;-51
2022/10/24 01:26:43;;;;;;;;;;;18.40;1.00;;;;;;5032897;28;19921;-56
2022/10/24 01:29:10;;;;;;;;;;;18.40;1.00;;;;;;5032717;28;20366;-49
2022/10/24 01:31:40;;;;;;;;;;;18.40;1.00;;;;;;5032481;28;19921;-56
2022/10/24 01:34:09;;;;;;;;;;;18.40;1.00;;;;;;5032797;28;19921;-53
2022/10/24 01:36:38;;;;;;;;;;;18.40;1.00;;;;;;5032468;28;20367;-53
2022/10/24 01:39:10;;;;;;;;;;;18.40;1.00;;;;;;5035662;28;19943;-50
2022/10/24 01:41:39;;;;;;;;;;;18.40;1.00;;;;;;5036378;28;19989;-50
2022/10/24 01:44:08;;;;;;;;;;;18.40;1.00;;;;;;5036692;28;19956;-53
2022/10/24 01:46:38;;;;;;;;;;;18.40;1.00;;;;;;5036295;28;19925;-52
2022/10/24 01:49:09;;;;;;;;;;;18.40;1.00;;;;;;5036609;28;19921;-50
2022/10/24 01:51:37;;;;;;;;;;;18.40;1.00;;;;;;5036437;28;20326;-54
2022/10/24 01:54:04;;;;;;;;;;;18.40;1.00;;;;;;5036207;28;19960;-52
2022/10/24 01:56:30;;;;;;;;;;;18.40;1.00;;;;;;5036402;28;19928;-49
2022/10/24 01:59:07;;;;;;;;;;;18.40;1.00;;;;;;5036094;28;19935;-50
2022/10/24 02:01:35;;;;;;;;;;;18.40;1.00;;;;;;5036473;28;19936;-48
2022/10/24 02:04:04;;;;;;;;;;;18.40;1.00;;;;;;5035962;28;19921;-51
2022/10/24 02:06:33;;;;;;;;;;;18.40;1.00;;;;;;5036115;28;20287;-50
2022/10/24 02:09:04;;;;;;;;;;;18.40;1.00;;;;;;5036079;28;19921;-49
2022/10/24 02:11:36;;;;;;;;;;;18.40;1.00;;;;;;5035885;28;19921;-55
2022/10/24 02:14:12;;;;;;;;;;;18.40;1.00;;;;;;5036054;28;19930;-51
2022/10/24 02:16:40;;;;;;;;;;;18.40;1.00;;;;;;5035863;28;20346;-52
2022/10/24 02:19:06;;;;;;;;;;;18.40;1.00;;;;;;5035794;28;19928;-55
2022/10/24 02:21:41;;;;;;;;;;;18.40;1.00;;;;;;5035492;28;20409;-51
2022/10/24 02:24:13;;;;;;;;;;;18.30;1.00;;;;;;5036011;28;19927;-51
2022/10/24 02:26:48;;;;;;;;;;;18.40;1.00;;;;;;5035785;28;19964;-52
2022/10/24 02:29:17;;;;;;;;;;;18.40;1.00;;;;;;5035685;28;20292;-49
2022/10/24 02:31:49;;;;;;;;;;;18.40;1.00;;;;;;5035369;28;19969;-55
2022/10/24 02:34:16;;;;;;;;;;;18.30;1.00;;;;;;5035548;28;19960;-50
2022/10/24 02:36:44;;;;;;;;;;;18.30;1.00;;;;;;5035311;28;19929;-52
2022/10/24 02:39:11;;;;;;;;;;;18.30;1.00;;;;;;5035595;28;19921;-51
2022/10/24 02:41:39;;;;;;;;;;;18.30;1.00;;;;;;5035270;28;19932;-54
2022/10/24 02:44:07;;;;;;;;;;;18.30;1.00;;;;;;5035429;28;19921;-57
2022/10/24 02:46:33;;;;;;;;;;;18.30;1.00;;;;;;5035423;28;20318;-57
2022/10/24 02:49:01;;;;;;;;;;;18.30;1.00;;;;;;5034626;28;20454;-56
2022/10/24 02:51:30;;;;;;;;;;;18.30;1.00;;;;;;5034960;28;19924;-55
2022/10/24 02:53:58;;;;;;;;;;;18.30;1.00;;;;;;5035040;28;19967;-53
2022/10/24 02:56:25;;;;;;;;;;;18.30;1.00;;;;;;5035201;28;20334;-55
2022/10/24 02:58:52;;;;;;;;;;;18.30;1.00;;;;;;5035152;28;19927;-54
2022/10/24 03:01:19;;;;;;;;;;;18.30;1.00;;;;;;5034979;28;19971;-55
2022/10/24 03:03:45;;;;;;;;;;;18.30;1.00;;;;;;5034699;28;19921;-57
2022/10/24 03:06:12;;;;;;;;;;;18.30;1.00;;;;;;5034854;28;19921;-50
2022/10/24 03:08:39;;;;;;;;;;;18.30;1.00;;;;;;5034888;28;19972;-56
2022/10/24 03:11:06;;;;;;;;;;;18.30;1.00;;;;;;5034736;28;19959;-53
2022/10/24 03:13:33;;;;;;;;;;;18.30;1.00;;;;;;5034604;28;19940;-50
2022/10/24 03:15:59;;;;;;;;;;;18.30;1.00;;;;;;5034643;28;20032;-56
2022/10/24 03:18:26;;;;;;;;;;;18.30;1.00;;;;;;5034979;28;20286;-58
2022/10/24 03:20:53;;;;;;;;;;;18.30;1.00;;;;;;5035006;28;20291;-52
2022/10/24 03:23:20;;;;;;;;;;;18.20;1.00;;;;;;5034444;28;19991;-56
2022/10/24 03:25:47;;;;;;;;;;;18.20;1.00;;;;;;5034456;28;20394;-52
2022/10/24 03:28:14;;;;;;;;;;;18.20;1.00;;;;;;5034542;28;19925;-57
2022/10/24 03:30:41;;;;;;;;;;;18.30;1.00;;;;;;5034353;28;20333;-55
2022/10/24 03:33:07;;;;;;;;;;;18.20;1.00;;;;;;5034154;28;19928;-53
2022/10/24 03:35:34;;;;;;;;;;;18.20;1.00;;;;;;5034271;28;19921;-58
2022/10/24 03:38:01;;;;;;;;;;;18.20;1.00;;;;;;5034406;28;19925;-54
2022/10/24 03:40:28;;;;;;;;;;;18.20;1.00;;;;;;5034217;28;19921;-59
2022/10/24 03:42:54;;;;;;;;;;;18.30;1.00;;;;;;5033850;28;19925;-57
2022/10/24 03:45:21;;;;;;;;;;;18.20;1.00;;;;;;5034303;28;19975;-55
2022/10/24 03:47:48;;;;;;;;;;;18.30;1.00;;;;;;5034123;28;19921;-54
2022/10/24 03:50:14;;;;;;;;;;;18.20;1.00;;;;;;5033919;28;20440;-55
2022/10/24 03:52:41;;;;;;;;;;;18.20;1.00;;;;;;5033730;28;19920;-52
2022/10/24 03:55:09;;;;;;;;;;;18.20;1.00;;;;;;5034001;28;19932;-54
2022/10/24 03:57:35;;;;;;;;;;;18.20;1.00;;;;;;5034200;28;19925;-54
2022/10/24 04:00:03;;;;;;;;;;;18.30;1.00;;;;;;5034132;28;20023;-53
2022/10/24 04:02:32;;;;;;;;;;;18.30;1.00;;;;;;5033707;28;19976;-49
2022/10/24 04:04:58;;;;;;;;;;;18.30;1.00;;;;;;5033674;28;19955;-51
2022/10/24 04:07:25;;;;;;;;;;;18.20;1.00;;;;;;5033660;28;20024;-52
2022/10/24 04:09:52;;;;;;;;;;;18.30;1.00;;;;;;5032388;28;19983;-49
2022/10/24 04:12:18;;;;;;;;;;;18.20;1.00;;;;;;5022418;28;20399;-47
2022/10/24 04:14:45;;;;;;;;;;;18.20;1.00;;;;;;5023185;28;19921;-54
2022/10/24 04:17:11;;;;;;;;;;;18.20;1.00;;;;;;5019185;28;19988;-57
2022/10/24 04:19:38;;;;;;;;;;;18.20;1.00;;;;;;5013781;28;19941;-54
2022/10/24 04:22:05;;;;;;;;;;;18.20;1.00;;;;;;5013494;28;19928;-48
2022/10/24 04:24:32;;;;;;;;;;;18.20;1.00;;;;;;5013817;28;20555;-54
2022/10/24 04:26:59;;;;;;;;;;;18.20;1.00;;;;;;5013794;28;19956;-52
2022/10/24 04:29:25;;;;;;;;;;;18.20;1.00;;;;;;5013533;28;19967;-54
2022/10/24 04:31:52;;;;;;;;;;;18.20;1.00;;;;;;5013228;28;19921;-51
2022/10/24 04:34:19;;;;;;;;;;;18.20;1.00;;;;;;5013626;28;20434;-53
2022/10/24 04:36:45;;;;;;;;;;;18.20;1.00;;;;;;5013513;28;19921;-53
2022/10/24 04:39:12;;;;;;;;;;;18.20;1.00;;;;;;5013862;28;19925;-55
2022/10/24 04:41:39;;;;;;;;;;;18.20;1.00;;;;;;5013209;28;19921;-54
2022/10/24 04:44:06;;;;;;;;;;;18.20;1.00;;;;;;5012578;28;19944;-53
2022/10/24 04:46:32;;;;;;;;;;;18.20;1.00;;;;;;5013368;28;20069;-53
2022/10/24 04:48:59;;;;;;;;;;;18.20;1.00;;;;;;5013165;28;19928;-51
2022/10/24 04:51:26;;;;;;;;;;;18.20;1.00;;;;;;5013373;28;19928;-49
2022/10/24 04:53:52;;;;;;;;;;;18.20;1.00;;;;;;5013072;28;19921;-56
2022/10/24 04:56:19;;;;;;;;;;;18.20;1.00;;;;;;5013279;28;19979;-53
2022/10/24 04:58:46;;;;;;;;;;;18.20;1.00;;;;;;5013487;28;19925;-47
2022/10/24 05:01:13;;;;;;;;;;;18.20;1.00;;;;;;5013465;28;19921;-55
2022/10/24 05:03:39;;;;;;;;;;;18.20;1.00;;;;;;5013124;28;19927;-54
2022/10/24 05:06:06;;;;;;;;;;;18.20;1.00;;;;;;5013310;28;19937;-55
2022/10/24 05:08:33;;;;;;;;;;;18.20;1.00;;;;;;5013226;28;20279;-56
2022/10/24 05:11:00;;;;;;;;;;;18.20;1.00;;;;;;5026063;28;19921;-54
2022/10/24 05:13:26;;;;;;;;;;;18.20;1.00;;;;;;5034690;28;20015;-50
2022/10/24 05:16:00;;;;;;;;;;;18.20;1.00;;;;;;5037197;28;20446;-53
2022/10/24 05:18:26;;;;;;;;;;;18.20;1.00;;;;;;5036960;28;19921;-50
2022/10/24 05:20:56;;;;;;;;;;;18.20;1.00;;;;;;5036813;28;19921;-56
2022/10/24 05:23:23;;;;;;;;;;;18.20;1.00;;;;;;5036696;28;19928;-51
2022/10/24 05:25:50;;;;;;;;;;;18.10;1.00;;;;;;5036955;28;19990;-57
2022/10/24 05:28:17;;;;;;;;;;;18.10;1.00;;;;;;5036832;28;19921;-54
2022/10/24 05:30:43;;;;;;;;;;;18.10;1.00;;;;;;5036752;28;19920;-52
2022/10/24 05:33:10;;;;;;;;;;;18.10;1.00;;;;;;5036107;28;19983;-55
2022/10/24 05:35:37;;;;;;;;;;;18.10;1.00;;;;;;5036703;28;19984;-56
2022/10/24 05:38:04;;;;;;;;;;;18.10;1.00;;;;;;5036447;28;19921;-53
2022/10/24 05:40:31;;;;;;;;;;;18.10;1.00;;;;;;5036466;28;19928;-52
2022/10/24 05:42:57;;;;;;;;;;;18.10;1.00;;;;;;5036167;28;19925;-55
2022/10/24 05:45:24;;;;;;;;;;;18.10;1.00;;;;;;5036432;28;19950;-52
2022/10/24 05:47:51;;;;;;;;;;;18.10;1.00;;;;;;5036492;28;20028;-58
2022/10/24 05:50:18;;;;;;;;;;;18.10;1.00;;;;;;5036531;28;19928;-58
2022/10/24 05:52:44;;;;;;;;;;;18.10;1.00;;;;;;5036021;28;19964;-52
2022/10/24 05:55:12;;;;;;;;;;;18.10;1.00;;;;;;5036178;28;19921;-55
2022/10/24 05:57:44;;;;;;;;;;;18.10;1.00;;;;;;5036152;28;19951;-57
2022/10/24 06:00:12;;;;;;;;;;;18.10;1.00;;;;;;5036196;28;19922;-54
2022/10/24 06:02:39;;;;;;;;;;;18.10;1.00;;;;;;5035597;28;19925;-54
2022/10/24 06:05:06;;;;;;;;;;;18.10;1.00;;;;;;5036021;28;20054;-54
2022/10/24 06:07:34;;;;;;;;;;;18.10;1.00;;;;;;5036208;28;19932;-54
2022/10/24 06:10:01;;;;;;;;;;;18.10;1.00;;;;;;5035728;28;19921;-55
2022/10/24 06:12:28;;;;;;;;;;;18.10;1.00;;;;;;5035618;28;19928;-50
2022/10/24 06:14:55;;;;;;;;;;;18.10;1.00;;;;;;5035730;28;20333;-50
2022/10/24 06:17:22;;;;;;;;;;;18.10;1.00;;;;;;5035966;28;19924;-56
2022/10/24 06:19:49;;;;;;;;;;;18.20;1.00;;;;;;5035802;28;19925;-54
2022/10/24 06:22:17;;;;;;;;;;;18.10;1.00;;;;;;5035565;28;19944;-54
2022/10/24 06:24:43;;;;;;;;;;;18.10;1.00;;;;;;5033172;28;19921;-48
2022/10/24 06:27:10;;;;;;;;;;;18.10;1.00;;;;;;5035633;28;19928;-55
2022/10/24 06:29:37;;;;;;;;;;;18.10;1.00;;;;;;5035581;28;19921;-49
2022/10/24 06:32:03;;;;;;;;;;;18.10;1.00;;;;;;5035267;28;19924;-55
2022/10/24 06:34:30;;;;;;;;;;;18.10;1.00;;;;;;5035380;28;19921;-52
2022/10/24 06:36:57;;;;;;;;;;;18.10;1.00;;;;;;5035266;28;20382;-53
2022/10/24 06:39:23;;;;;;;;;;;18.10;1.00;;;;;;5035398;28;19990;-48
2022/10/24 06:41:50;;;;;;;;;;;18.10;1.00;;;;;;5034666;28;19991;-52
2022/10/24 06:44:17;;;;;;;;;;;18.10;1.00;;;;;;5030100;28;19924;-49
2022/10/24 06:46:44;;;;;;;;;;;18.10;1.00;;;;;;5028843;28;20267;-58
2022/10/24 06:49:11;;;;;;;;;;;18.10;1.00;;;;;;5035203;28;20271;-50
2022/10/24 06:51:38;;;;;;;;;;;18.10;1.00;;;;;;5034753;28;19925;-51
2022/10/24 06:54:06;;;;;;;;;;;18.10;1.00;;;;;;5035276;28;20039;-52
2022/10/24 06:56:32;;;;;;;;;;;18.10;1.00;;;;;;5035013;28;19929;-54
2022/10/24 06:58:59;;;;;;;;;;;18.10;1.00;;;;;;5034972;28;19932;-55
2022/10/24 07:01:26;;;;;;;;;;;18.10;1.00;;;;;;5035014;28;19921;-55
2022/10/24 07:03:53;;;;;;;;;;;18.10;1.00;;;;;;5034838;28;20366;-54
2022/10/24 07:06:22;;;;;;;;;;;18.10;1.00;;;;;;5035042;28;19921;-54
2022/10/24 07:08:55;;;;;;;;;;;18.10;1.00;;;;;;5034781;28;20012;-52
2022/10/24 07:11:22;;;;;;;;;;;18.10;1.00;;;;;;5034653;28;19921;-55
2022/10/24 07:13:49;;;;;;;;;;;18.10;1.00;;;;;;5034452;28;19974;-49
2022/10/24 07:16:16;;;;;;;;;;;18.10;1.00;;;;;;5034558;28;20382;-55
2022/10/24 07:18:43;;;;;;;;;;;18.10;1.00;;;;;;5034779;28;19927;-57
2022/10/24 07:21:12;;;;;;;;;;;18.10;1.00;;;;;;5034824;28;19921;-51
2022/10/24 07:23:39;;;;;;;;;;;18.10;1.00;;;;;;5034473;28;19921;-53
2022/10/24 07:26:07;;;;;;;;;;;18.10;1.00;;;;;;5034335;28;19924;-52
2022/10/24 07:28:35;;;;;;;;;;;18.10;1.00;;;;;;5034622;28;19948;-53
2022/10/24 07:31:02;;;;;;;;;;;18.10;1.00;;;;;;5034491;28;19943;-46
2022/10/24 07:33:29;;;;;;;;;;;18.20;1.00;;;;;;5034185;28;19933;-48
2022/10/24 07:35:56;;;;;;;;;;;18.10;1.00;;;;;;5034009;28;20333;-52
2022/10/24 07:38:23;;;;;;;;;;;18.10;1.00;;;;;;5032797;28;19925;-51
2022/10/24 07:40:49;;;;;;;;;;;18.10;1.00;;;;;;5034228;28;20396;-56
2022/10/24 07:43:16;;;;;;;;;;;18.10;1.00;;;;;;5033822;28;19921;-53
2022/10/24 07:45:44;;;;;;;;;;;18.10;1.00;;;;;;5034301;28;20007;-53
2022/10/24 07:48:18;;;;;;;;;;;18.10;1.00;;;;;;5034298;28;19947;-54
2022/10/24 07:50:45;;;;;;;;;;;18.10;1.00;;;;;;5034057;28;20272;-56
2022/10/24 07:53:12;;;;;;;;;;;18.10;1.00;;;;;;5033780;28;19927;-54
2022/10/24 07:55:40;;;;;;;;;;;18.10;1.00;;;;;;5033900;28;19971;-57
2022/10/24 07:58:07;;;;;;;;;;;18.10;1.00;;;;;;5033890;28;20390;-54
2022/10/24 08:00:34;;;;;;;;;;;18.10;1.00;;;;;;5034147;28;19928;-55
2022/10/24 08:03:01;;;;;;;;;;;18.10;1.00;;;;;;5033494;28;19921;-57
2022/10/24 08:05:28;;;;;;;;;;;18.10;1.00;;;;;;5033880;28;19927;-57
2022/10/24 08:07:55;;;;;;;;;;;18.10;1.00;;;;;;5033846;28;20363;-55
2022/10/24 08:10:41;;;;;;;;;;;18.10;1.00;;;;;;5033740;28;19975;-53
2022/10/24 08:13:08;;;;;;;;;;;18.10;1.00;;;;;;5033466;28;20307;-54
2022/10/24 08:15:39;;;;;;;;;;;18.10;1.00;;;;;;5033691;28;20365;-54
2022/10/24 08:18:05;;;;;;;;;;;18.10;1.00;;;;;;5033489;28;20031;-60
2022/10/24 08:20:32;;;;;;;;;;;18.10;1.00;;;;;;5033604;28;19921;-57
2022/10/24 08:22:59;;;;;;;;;;;18.10;1.00;;;;;;5033282;28;19921;-59
2022/10/24 08:25:26;;;;;;;;;;;18.10;1.00;;;;;;5033584;28;20279;-59
2022/10/24 08:27:52;;;;;;;;;;;18.10;1.00;;;;;;5033674;28;20401;-55
2022/10/24 08:30:19;;;;;;;;;;;18.10;1.00;;;;;;5033391;28;20074;-54
2022/10/24 08:32:46;;;;;;;;;;;18.10;1.00;;;;;;5032774;28;19990;-57
2022/10/24 08:35:17;;;;;;;;;;;18.10;1.00;;;;;;5033160;28;19921;-50
2022/10/24 08:37:44;;;;;;;;;;;18.10;1.00;;;;;;5033426;28;19928;-54
2022/10/24 08:40:14;;;;;;;;;;;18.10;1.00;;;;;;5033256;28;20418;-53
2022/10/24 08:42:41;;;;;;;;;;;18.10;1.00;;;;;;5032930;28;19921;-51
2022/10/24 08:45:25;;;;;;;;;;;18.10;1.00;;;;;;5032929;28;19928;-57
2022/10/24 08:47:57;;;;;;;;;;;18.10;1.00;;;;;;5032624;28;19944;-55
2022/10/24 08:50:26;;;;;;;;;;;18.10;1.00;;;;;;5033266;28;19921;-54
2022/10/24 08:52:55;;;;;;;;;;;18.10;1.00;;;;;;5031449;28;20378;-57
2022/10/24 08:55:22;;;;;;;;;;;18.10;1.00;;;;;;5033015;28;19928;-51
2022/10/24 08:58:12;;;;;;;;;;;18.10;1.00;;;;;;5033051;28;19975;-51
2022/10/24 09:00:40;;;;;;;;;;;18.10;1.00;;;;;;5033085;28;20019;-50
2022/10/24 09:03:39;;;;;;;;;;;18.10;1.00;;;;;;5032659;28;19978;-60
2022/10/24 09:06:24;;;;;;;;;;;18.10;1.00;;;;;;5023401;28;19927;-48
2022/10/24 09:08:52;;;;;;;;;;;18.10;1.00;;;;;;5032902;28;19920;-52
2022/10/24 09:11:40;;;;;;;;;;;18.10;1.00;;;;;;5032928;28;19932;-48
2022/10/24 09:14:11;;;;;;;;;;;18.10;1.00;;;;;;5025902;28;19928;-48
2022/10/24 09:16:40;;;;;;;;;;;18.10;1.00;;;;;;5032829;28;19975;-55
2022/10/24 09:19:09;;;;;;;;;;;18.10;1.00;;;;;;5032729;28;19956;-53
2022/10/24 09:21:37;;;;;;;;;;;18.20;1.00;;;;;;5033023;28;19921;-52
2022/10/24 09:24:04;;;;;;;;;;;18.20;1.00;;;;;;5033069;28;19981;-56
2022/10/24 09:26:31;;;;;;;;;;;18.30;1.00;;;;;;5032778;28;19925;-57
2022/10/24 09:28:58;;;;;;;;;;;18.30;1.00;;;;;;5032767;28;19925;-59
2022/10/24 09:31:26;;;;;;;;;;;18.30;1.00;;;;;;5032557;28;19928;-57
2022/10/24 09:33:53;;;;;;;;;;;18.30;1.00;;;;;;5032424;28;19967;-55
2022/10/24 09:36:20;;;;;;;;;;;18.30;1.00;;;;;;5032551;28;19987;-56
2022/10/24 09:38:50;;;;;;;;;;;18.30;1.00;;;;;;5032471;28;19921;-53
2022/10/24 09:41:25;;;;;;;;;;;18.40;1.00;;;;;;5032540;28;19920;-57
2022/10/24 09:43:54;;;;;;;;;;;18.40;1.00;;;;;;5032461;28;20007;-51
2022/10/24 09:46:23;;;;;;;;;;;18.40;1.00;;;;;;5032599;28;20023;-47
2022/10/24 09:48:52;;;;;;;;;;;18.50;1.00;;;;;;5032587;28;19925;-51
2022/10/24 09:51:21;;;;;;;;;;;18.50;1.00;;;;;;5032763;28;19928;-53
2022/10/24 09:54:06;;;;;;;;;;;18.60;1.00;;;;;;5032238;28;20271;-51
2022/10/24 09:56:42;;;;;;;;;;;18.70;1.00;;;;;;5032312;28;19953;-51
2022/10/24 09:59:24;;;;;;;;;;;18.70;1.00;;;;;;5026190;28;19925;-52
2022/10/24 10:01:51;;;;;;;;;;;18.70;1.00;;;;;;5035944;28;19971;-48
2022/10/24 10:04:18;;;;;;;;;;;18.70;1.00;;;;;;5034903;28;19971;-55
2022/10/24 10:06:47;;;;;;;;;;;18.50;1.00;;;;;;5035929;28;19983;-44
2022/10/24 10:09:15;;;;;;;;;;;18.40;1.00;;;;;;5036009;28;19921;-38
2022/10/24 10:12:41;;;;;;;15.68;4.03;;;18.50;1.00;;;;;;5069714;28;20433;-36
2022/10/24 10:15:29;;;;;;;17.98;2.88;;;18.70;1.00;;;;;;5062727;28;20053;-36
2022/10/24 10:17:59;;;;;;;12.20;2.42;;;18.80;1.00;;;;;;5050000;28;20087;-34
2022/10/24 10:20:32;;;;;;;9.50;3.78;;;18.80;1.00;;;;;;5049949;28;20044;-30
2022/10/24 10:23:25;;;;;;;11.00;2.70;;;18.80;1.00;;;;;;5049376;28;20037;-33
2022/10/24 10:26:17;;;;;;;14.02;2.90;;;18.80;1.00;;;;;;5048444;28;20049;-26
2022/10/24 10:29:24;;;;;;;13.52;2.47;;;18.80;1.00;;;;;;5030529;28;20046;-31
2022/10/24 10:32:10;;;;;;;10.85;2.58;;;18.80;1.00;;;;;;5052741;28;20068;-36
2022/10/24 10:35:09;;;;;;;10.48;2.10;;;18.80;1.00;;;;;;5069505;28;20083;-31
2022/10/24 10:37:46;;;;;;;12.73;2.83;;;18.80;1.00;;;;;;5069486;28;20509;-26
2022/10/24 10:40:38;;;;;;;17.15;2.72;;;18.70;1.00;;;;;;5069510;28;20052;-28
2022/10/24 10:43:23;;;;;;;13.30;2.40;;;18.70;1.00;;;;;;5069168;28;20044;-30
2022/10/24 10:46:23;;;;;;;13.90;2.00;;;18.70;1.00;;;;;;5068907;28;20047;-38
2022/10/24 10:48:57;;;;;;;13.43;2.28;;;18.70;1.00;;;;;;5051320;28;20061;-45
2022/10/24 10:51:27;;;;;;;9.93;2.45;;;18.70;1.00;;;;;;5049000;28;20041;-40
2022/10/24 10:54:02;;;;;;;12.98;2.13;;;18.70;1.00;;;;;;5050088;28;20049;-37
2022/10/24 10:56:32;;;;;;;11.63;3.05;;;18.60;1.00;;;;;;5049153;28;20099;-33
2022/10/24 10:59:10;;;;;;;13.10;2.03;;;18.60;1.00;;;;;;5049060;28;20045;-31
2022/10/24 11:02:01;;;;;;;11.82;2.00;;;18.60;1.00;;;;;;5048823;28;20419;-34
2022/10/24 11:05:16;;;;;;;16.05;2.38;;;18.60;1.00;;;;;;5048934;28;20041;-32
2022/10/24 11:08:06;;;;;;;10.60;2.42;;;18.60;1.00;;;;;;5045964;28;20115;-36
2022/10/24 11:10:38;;;;;;;11.07;2.22;;;18.60;1.00;;;;;;5065447;28;20040;-36
2022/10/24 11:13:14;;;;;;;18.00;2.57;;;18.60;1.00;;;;;;5061117;28;20045;-34
2022/10/24 11:15:46;;;;;;;19.42;3.33;;;18.60;1.00;;;;;;5068744;28;20479;-33
2022/10/24 11:18:21;;;;;;;9.02;2.03;;;18.60;1.00;;;;;;5068653;28;20032;-44
2022/10/24 11:21:09;;;;;;;11.50;2.40;;;18.70;1.00;;;;;;5068556;28;20041;-44
2022/10/24 11:24:02;;;;;;;9.10;2.25;;;18.80;1.00;;;;;;5055089;28;20065;-44
2022/10/24 11:26:36;;;;;;;9.80;2.47;;;18.80;1.00;;;;;;5035320;28;20091;-44
2022/10/24 11:29:08;;;;;;;7.03;2.05;;;18.80;1.00;;;;;;5035137;28;20053;-44
2022/10/24 11:31:48;;;;;;;10.60;2.05;;;18.70;1.00;;;;;;5035320;28;20072;-44
2022/10/24 11:34:25;;;;;;;11.50;2.75;;;18.70;1.00;;;;;;5037124;28;20046;-44
2022/10/24 11:37:10;;;;;;;14.93;2.40;;;18.80;1.00;;;;;;5064264;28;20516;-44
2022/10/24 11:39:37;;;;;;;11.60;2.30;;;18.80;1.00;;;;;;5056129;28;20480;-43
2022/10/24 11:42:17;;;;;;;10.57;3.08;;;18.70;1.00;;;;;;5054549;28;20045;-43
2022/10/24 11:45:11;;;;;;;9.23;1.95;;;18.70;1.00;;;;;;5072653;28;20040;-43
2022/10/24 11:47:59;;;;;;;9.10;1.60;;;18.70;1.00;;;;;;5036352;28;20522;-45
2022/10/24 11:50:46;;;;;;;7.78;1.65;;;18.60;1.00;;;;;;5035035;28;20041;-44
2022/10/24 11:53:32;;;;;;;12.60;1.75;;;18.60;1.00;;;;;;5040429;28;20044;-42
2022/10/24 11:56:07;;;;;;;16.98;3.60;;;18.50;1.00;;;;;;5035635;28;20099;-35
2022/10/24 11:58:58;;;;;;;17.13;2.45;;;18.50;1.00;;;;;;5034608;28;20042;-29
2022/10/24 12:01:46;;;;;;;20.73;3.53;;;18.50;1.00;;;;;;5039432;28;20077;-25
2022/10/24 12:04:34;;;;;;;25.80;3.33;;;18.50;1.00;;;;;;5045020;28;20406;-28
2022/10/24 12:07:16;;;;;;;24.92;2.85;;;18.50;1.00;;;;;;5034507;28;20483;-38
2022/10/24 12:16:38;;;;;;;12.00;2.78;;;18.60;1.00;;;;;;5119533;23;20053;-43
2022/10/24 12:19:12;;;;;;;19.60;1.90;;;21.20;1.00;;;;;;4883393;29;20126;-39
2022/10/24 12:21:55;;;;;;;10.23;1.80;;;20.20;1.00;;;;;;5047513;23;20048;-30
2022/10/24 12:24:29;;;;;;;;;;;19.70;1.00;;;;;;4902075;29;20095;-31
2022/10/24 12:30:18;;;;;;;10.65;1.48;;;19.30;1.00;;;;;;5128197;23;20086;-45
2022/10/24 12:32:46;;;;;;;9.77;1.95;;;19.40;1.00;;;;;;4863647;29;20088;-40
2022/10/24 12:35:25;;;;;;;12.70;2.13;;;19.20;1.00;;;;;;4865934;29;20412;-38
2022/10/24 12:37:56;;;;;;;11.07;2.20;;;19.00;1.00;;;;;;4847067;29;20439;-39
2022/10/24 12:41:08;;;;;;;15.00;2.38;;;18.80;1.00;;;;;;4858735;29;20414;-39
2022/10/24 12:43:36;;;;;;;13.23;2.60;;;18.60;1.00;;;;;;4813096;29;20055;-38
2022/10/24 12:46:15;;;;;;;14.98;2.05;;;18.50;1.00;;;;;;4847727;29;20127;-39
2022/10/24 12:48:57;;;;;;;11.38;1.77;;;18.50;1.00;;;;;;4842820;29;20551;-38
2022/10/24 12:51:24;;;;;;;5.45;1.50;;;18.60;1.00;;;;;;4843046;29;20121;-47
2022/10/24 12:54:12;;;;;;;34.58;3.40;;;18.80;1.00;;;;;;4842902;29;20049;-45
2022/10/24 12:56:51;;;;;;;15.18;3.45;;;18.90;1.00;;;;;;4843093;29;20046;-38
2022/10/24 12:59:20;;;;;;;11.38;2.30;;;18.90;1.00;;;;;;4842244;29;20056;-39
2022/10/24 13:01:50;;;;;;;12.95;4.22;;;19.00;1.00;;;;;;4842565;29;20053;-37
2022/10/24 13:04:35;;;;;;;11.75;3.00;;;19.00;1.00;;;;;;4870034;29;20048;-48
2022/10/24 13:07:39;;;;;;;7.00;2.58;;;18.90;1.00;;;;;;4879770;29;20063;-48
2022/10/24 13:10:14;;;;;;;17.40;2.75;;;19.00;1.00;;;;;;4879250;29;20060;-56
2022/10/24 13:12:52;;;;;;;8.30;3.00;;;19.00;1.00;;;;;;4879115;29;20474;-47
2022/10/24 13:15:44;;;;;;;14.05;3.58;;;19.10;1.00;;;;;;4879445;29;20045;-59
2022/10/24 13:18:23;;;;;;;6.78;2.05;;;19.30;1.00;;;;;;4861837;29;20071;-57
2022/10/24 13:21:13;;;;;;;7.60;2.20;;;19.20;1.00;;;;;;4879054;29;20049;-55
2022/10/24 13:23:43;;;;;;;12.68;3.03;;;19.10;1.00;;;;;;4879149;29;20494;-60
2022/10/24 13:26:39;;;;;;;6.72;3.10;;;19.10;1.00;;;;;;4867250;29;20101;-62
2022/10/24 13:29:13;;;;;;;11.73;1.90;;;19.10;1.00;;;;;;4860489;29;20053;-61
2022/10/24 13:31:43;;;;;;;6.38;1.80;;;19.10;1.00;;;;;;4860326;29;20102;-61
2022/10/24 13:34:19;;;;;;;10.30;1.70;;;19.10;1.00;;;;;;4860629;29;20076;-62
2022/10/24 13:36:57;;;;;;;11.05;2.25;;;19.10;1.00;;;;;;4861488;29;20041;-60
2022/10/24 13:39:28;;;;;;;9.90;1.60;;;19.10;1.00;;;;;;4879159;29;20045;-62
2022/10/24 13:42:07;;;;;;;6.13;2.63;;;19.10;1.00;;;;;;4879272;29;20045;-61
2022/10/24 13:44:43;;;;;;;7.97;1.70;;;19.10;1.00;;;;;;4856313;29;20049;-61
2022/10/24 13:47:10;;;;;;;8.13;1.52;;;19.10;1.00;;;;;;4842414;29;20136;-62
2022/10/24 13:49:43;;;;;;;8.90;1.45;;;19.10;1.00;;;;;;4841839;29;20045;-60
2022/10/24 13:52:30;;;;;;;6.82;1.88;;;19.10;1.00;;;;;;4844523;29;20816;-61
2022/10/24 13:55:18;;;;;;;9.10;1.70;;;19.10;1.00;;;;;;4861998;29;20045;-60
2022/10/24 13:58:10;;;;;;;5.32;1.35;;;19.10;1.00;;;;;;4849733;29;20402;-61
2022/10/24 14:00:56;;;;;;;10.15;1.92;;;19.10;1.00;;;;;;4873991;29;20068;-62
2022/10/24 14:03:27;;;;;;;4.68;1.67;;;19.10;1.00;;;;;;4864841;29;20045;-61
2022/10/24 14:05:59;;;;;;;7.57;1.58;;;19.10;1.00;;;;;;4860651;29;20396;-59
2022/10/24 14:08:36;;;;;;;6.82;1.25;;;19.10;1.00;;;;;;4860237;29;20080;-61
2022/10/24 14:11:10;;;;;;;5.40;1.15;;;19.10;1.00;;;;;;4867831;29;20549;-62
2022/10/24 14:13:45;;;;;;;6.65;1.30;;;19.00;1.00;;;;;;4863718;29;20050;-61
2022/10/24 14:16:12;;;;;;;4.63;1.05;;;19.10;1.00;;;;;;4860957;29;20052;-60
2022/10/24 14:18:41;;;;;;;9.18;2.03;;;19.10;1.00;;;;;;4858592;29;20038;-61
2022/10/24 14:21:21;;;;;;;5.53;1.45;;;19.10;1.00;;;;;;4859443;29;20045;-59
2022/10/24 14:24:00;;;;;;;14.38;3.30;;;19.10;1.00;;;;;;4878974;29;20044;-61
2022/10/24 14:26:27;;;;;;;6.75;1.38;;;19.10;1.00;;;;;;4862103;29;20037;-59
2022/10/24 14:28:57;;;;;;;8.15;2.25;;;19.10;1.00;;;;;;4860196;29;20045;-60
2022/10/24 14:31:33;;;;;;;7.43;1.55;;;19.10;1.00;;;;;;4860221;29;20049;-57
2022/10/24 14:34:04;;;;;;;6.00;1.20;;;19.10;1.00;;;;;;4866784;29;20037;-60
2022/10/24 14:36:34;;;;;;;5.32;1.58;;;19.10;1.00;;;;;;4859530;29;20051;-63